createdAt,value
2023-04-14T00:01:19.291Z,70.66
2023-04-14T00:03:48.782Z,70.70
2023-04-14T00:06:16.673Z,71.03
2023-04-14T00:08:44.726Z,70.39
2023-04-14T00:11:12.483Z,70.35
2023-04-14T00:13:40.421Z,70.20
2023-04-14T00:16:08.554Z,70.28
2023-04-14T00:18:36.368Z,70.20
2023-04-14T00:21:04.678Z,70.33
2023-04-14T00:23:32.678Z,70.51
2023-04-14T00:26:00.889Z,70.81
2023-04-14T00:28:28.893Z,70.62
2023-04-14T00:30:57.150Z,70.69
2023-04-14T00:33:25.847Z,70.85
2023-04-14T00:35:55.020Z,70.92
2023-04-14T00:38:22.909Z,71.29
2023-04-14T00:40:50.795Z,71.48
2023-04-14T00:43:22.094Z,71.73
2023-04-14T00:45:52.564Z,71.62
2023-04-14T00:48:20.575Z,71.50
2023-04-14T00:50:49.302Z,71.49
2023-04-14T00:53:17.439Z,71.53
2023-04-14T00:55:45.222Z,71.55
2023-04-14T00:58:15.923Z,71.45
2023-04-14T01:00:44.114Z,71.59
2023-04-14T01:03:12.653Z,71.69
2023-04-14T01:05:40.661Z,71.68
2023-04-14T01:08:08.657Z,71.79
2023-04-14T01:10:46.980Z,71.94
2023-04-14T01:13:35.568Z,72.23
2023-04-14T01:16:29.437Z,72.43
2023-04-14T01:19:25.128Z,72.52
2023-04-14T01:21:58.239Z,72.90
2023-04-14T01:24:41.059Z,72.95
2023-04-14T01:27:36.699Z,73.14
2023-04-14T01:30:49.244Z,73.47
2023-04-14T01:33:24.162Z,73.44
2023-04-14T01:35:59.013Z,73.51
2023-04-14T01:38:36.236Z,73.61
2023-04-14T01:41:08.762Z,73.82
2023-04-14T01:43:43.246Z,73.97
2023-04-14T01:46:16.218Z,74.12
2023-04-14T01:48:46.087Z,74.40
2023-04-14T01:51:19.046Z,74.40
2023-04-14T01:53:50.001Z,74.33
2023-04-14T01:56:21.058Z,74.41
2023-04-14T01:58:51.798Z,74.38
2023-04-14T02:01:21.256Z,74.44
2023-04-14T02:03:50.775Z,74.69
2023-04-14T02:06:22.380Z,74.62
2023-04-14T02:08:51.814Z,74.39
2023-04-14T02:11:22.299Z,74.13
2023-04-14T02:13:50.893Z,73.88
2023-04-14T02:16:20.024Z,73.52
2023-04-14T02:18:50.870Z,73.28
2023-04-14T02:21:20.803Z,73.03
2023-04-14T02:23:48.643Z,72.95
2023-04-14T02:26:22.414Z,72.94
2023-04-14T02:29:03.177Z,72.81
2023-04-14T02:31:37.013Z,72.65
2023-04-14T02:34:08.904Z,72.70
2023-04-14T02:36:46.604Z,72.80
2023-04-14T02:39:46.174Z,73.13
2023-04-14T02:42:16.604Z,73.27
2023-04-14T02:44:55.849Z,73.45
2023-04-14T02:47:38.366Z,73.67
2023-04-14T02:50:11.420Z,73.90
2023-04-14T02:52:44.241Z,74.21
2023-04-14T02:55:13.590Z,74.33
2023-04-14T02:57:41.829Z,74.47
2023-04-14T03:00:12.666Z,74.79
2023-04-14T03:02:47.674Z,75.00
2023-04-14T03:05:15.826Z,74.90
2023-04-14T03:07:57.353Z,74.84
2023-04-14T03:10:27.142Z,75.14
2023-04-14T03:13:01.481Z,75.07
2023-04-14T03:15:32.563Z,74.51
2023-04-14T03:18:02.948Z,74.33
2023-04-14T03:20:33.333Z,74.15
2023-04-14T03:23:05.537Z,74.05
2023-04-14T03:25:41.706Z,74.20
2023-04-14T03:28:21.493Z,74.41
2023-04-14T03:30:54.297Z,74.55
2023-04-14T03:33:31.138Z,74.57
2023-04-14T03:36:01.703Z,74.60
2023-04-14T03:38:33.426Z,74.74
2023-04-14T03:41:05.674Z,74.92
2023-04-14T03:43:34.906Z,75.10
2023-04-14T03:46:07.848Z,75.21
2023-04-14T03:48:44.424Z,75.42
2023-04-14T03:51:18.829Z,75.53
2023-04-14T03:53:48.439Z,75.68
2023-04-14T03:56:19.896Z,75.86
2023-04-14T03:58:51.653Z,75.98
2023-04-14T04:01:21.468Z,76.11
2023-04-14T04:03:50.934Z,76.31
2023-04-14T04:06:19.009Z,76.35
2023-04-14T04:08:51.787Z,76.51
2023-04-14T04:11:23.072Z,76.60
2023-04-14T04:13:54.987Z,76.68
2023-04-14T04:16:26.913Z,76.79
2023-04-14T04:18:55.304Z,76.76
2023-04-14T04:21:33.038Z,76.83
2023-04-14T04:24:04.684Z,76.91
2023-04-14T04:26:34.155Z,77.03
2023-04-14T04:29:05.476Z,77.06
2023-04-14T04:31:35.426Z,77.14
2023-04-14T04:34:04.649Z,77.15
2023-04-14T04:36:39.661Z,77.11
2023-04-14T04:39:07.700Z,77.13
2023-04-14T04:41:40.664Z,77.20
2023-04-14T04:44:08.561Z,77.25
2023-04-14T04:46:57.069Z,77.18
2023-04-14T04:49:27.399Z,77.26
2023-04-14T04:51:57.144Z,77.35
2023-04-14T04:54:25.365Z,77.49
2023-04-14T04:56:53.266Z,77.55
2023-04-14T04:59:21.185Z,77.54
2023-04-14T05:01:49.254Z,77.43
2023-04-14T05:04:17.392Z,77.37
2023-04-14T05:06:45.185Z,77.36
2023-04-14T05:09:13.020Z,77.43
2023-04-14T05:11:41.975Z,77.59
2023-04-14T05:14:09.930Z,77.72
2023-04-14T05:16:37.688Z,77.68
2023-04-14T05:19:05.421Z,77.72
2023-04-14T05:21:33.424Z,77.86
2023-04-14T05:24:01.946Z,77.76
2023-04-14T05:29:00.999Z,77.68
2023-04-14T05:31:29.048Z,77.69
2023-04-14T05:33:56.843Z,77.59
2023-04-14T05:36:24.829Z,77.45
2023-04-14T05:38:52.697Z,77.36
2023-04-14T05:41:22.139Z,77.29
2023-04-14T05:43:50.511Z,77.23
2023-04-14T05:46:18.320Z,77.18
2023-04-14T05:48:46.083Z,77.13
2023-04-14T05:51:13.900Z,77.05
2023-04-14T05:53:41.785Z,77.06
2023-04-14T05:56:11.710Z,76.92
2023-04-14T05:58:39.643Z,76.86
2023-04-14T06:01:07.931Z,76.80
2023-04-14T06:03:38.590Z,76.49
2023-04-14T06:06:08.897Z,76.08
2023-04-14T06:08:36.806Z,75.65
2023-04-14T06:11:04.882Z,75.25
2023-04-14T06:13:35.712Z,74.76
2023-04-14T06:16:04.638Z,74.14
2023-04-14T06:18:32.728Z,73.29
2023-04-14T06:21:01.944Z,72.60
2023-04-14T06:23:31.688Z,71.91
2023-04-14T06:25:59.888Z,71.68
2023-04-14T06:28:31.088Z,71.47
2023-04-14T06:31:00.901Z,70.43
2023-04-14T06:33:28.926Z,70.30
2023-04-14T06:35:56.811Z,69.96
2023-04-14T06:38:26.336Z,70.44
2023-04-14T06:40:54.238Z,68.94
2023-04-14T06:43:22.007Z,69.00
2023-04-14T06:45:51.393Z,69.03
2023-04-14T06:48:19.446Z,69.13
2023-04-14T06:50:54.721Z,69.11
2023-04-14T06:53:23.302Z,69.60
2023-04-14T06:55:59.412Z,68.98
2023-04-14T06:58:29.161Z,68.62
2023-04-14T07:01:03.162Z,68.13
2023-04-14T07:03:32.564Z,68.17
2023-04-14T07:06:10.646Z,67.29
2023-04-14T07:08:40.784Z,66.39
2023-04-14T07:11:11.154Z,65.36
2023-04-14T07:13:41.126Z,65.91
2023-04-14T07:16:09.185Z,65.17
2023-04-14T07:18:37.145Z,63.84
2023-04-14T07:21:05.073Z,65.22
2023-04-14T07:23:35.511Z,62.91
2023-04-14T07:26:03.248Z,61.21
2023-04-14T07:28:31.204Z,59.18
2023-04-14T07:30:59.226Z,59.69
2023-04-14T07:33:31.472Z,59.34
2023-04-14T07:36:03.639Z,56.77
2023-04-14T07:38:35.710Z,56.12
2023-04-14T07:41:05.775Z,56.66
2023-04-14T07:43:36.716Z,54.16
2023-04-14T07:46:06.765Z,52.13
2023-04-14T07:48:38.966Z,53.16
2023-04-14T07:51:07.868Z,53.10
2023-04-14T07:53:40.694Z,53.41
2023-04-14T07:56:08.680Z,51.73
2023-04-14T07:58:36.776Z,50.89
2023-04-14T08:01:05.745Z,53.03
2023-04-14T08:03:34.078Z,50.85
2023-04-14T08:06:02.148Z,52.53
2023-04-14T08:08:30.245Z,50.07
2023-04-14T08:10:58.275Z,51.12
2023-04-14T08:13:26.113Z,50.93
2023-04-14T08:15:54.208Z,51.19
2023-04-14T08:18:22.204Z,49.19
2023-04-14T08:20:50.105Z,48.19
2023-04-14T08:23:18.290Z,48.64
2023-04-14T08:25:46.924Z,46.94
2023-04-14T08:28:14.678Z,47.25
2023-04-14T08:30:42.410Z,47.40
2023-04-14T08:33:10.178Z,47.25
2023-04-14T08:35:42.743Z,48.07
2023-04-14T08:38:12.111Z,46.78
2023-04-14T08:40:42.780Z,45.01
2023-04-14T08:43:13.881Z,43.72
2023-04-14T08:45:43.526Z,42.74
2023-04-14T08:48:15.600Z,42.64
2023-04-14T08:51:32.896Z,42.65
2023-04-14T08:54:04.048Z,43.52
2023-04-14T08:56:39.629Z,42.82
2023-04-14T08:59:08.589Z,41.00
2023-04-14T09:01:38.162Z,41.05
2023-04-14T09:04:07.865Z,41.24
2023-04-14T09:06:36.641Z,41.40
2023-04-14T09:09:09.409Z,42.38
2023-04-14T09:11:37.872Z,42.01
2023-04-14T09:14:06.220Z,41.20
2023-04-14T09:16:34.560Z,40.26
2023-04-14T09:19:07.443Z,41.46
2023-04-14T09:21:51.608Z,39.46
2023-04-14T09:24:30.309Z,39.23
2023-04-14T09:27:07.496Z,38.76
2023-04-14T09:29:36.656Z,39.00
2023-04-14T09:32:06.871Z,38.86
2023-04-14T09:34:34.804Z,38.28
2023-04-14T09:37:08.089Z,38.99
2023-04-14T09:39:37.040Z,38.65
2023-04-14T09:42:05.536Z,38.09
2023-04-14T09:44:33.498Z,38.22
2023-04-14T09:47:06.688Z,38.33
2023-04-14T09:49:35.764Z,37.16
2023-04-14T09:52:08.879Z,37.91
2023-04-14T09:54:40.170Z,41.03
2023-04-14T09:57:08.422Z,41.09
2023-04-14T09:59:37.844Z,41.97
2023-04-14T10:02:08.593Z,42.95
2023-04-14T10:04:38.279Z,40.99
2023-04-14T10:07:08.253Z,41.26
2023-04-14T10:09:40.845Z,41.56
2023-04-14T10:12:14.650Z,39.54
2023-04-14T10:14:44.140Z,41.72
2023-04-14T10:17:13.697Z,40.07
2023-04-14T10:19:41.638Z,40.45
2023-04-14T10:22:10.666Z,41.15
2023-04-14T10:24:41.889Z,40.73
2023-04-14T10:27:10.086Z,43.18
2023-04-14T10:29:42.069Z,42.32
2023-04-14T10:32:16.370Z,42.89
2023-04-14T10:35:01.249Z,38.11
2023-04-14T10:37:29.365Z,38.85
2023-04-14T10:39:59.713Z,37.40
2023-04-14T10:42:28.878Z,36.08
2023-04-14T10:45:10.377Z,36.41
2023-04-14T10:47:41.833Z,38.31
2023-04-14T10:50:14.916Z,38.24
2023-04-14T10:52:59.094Z,39.08
2023-04-14T10:55:28.485Z,41.09
2023-04-14T10:58:06.621Z,42.78
2023-04-14T11:00:39.465Z,41.96
2023-04-14T11:03:13.024Z,41.39
2023-04-14T11:05:59.516Z,38.77
2023-04-14T11:08:34.513Z,40.92
2023-04-14T11:11:05.022Z,41.08
2023-04-14T11:13:35.345Z,38.89
2023-04-14T11:16:05.766Z,35.11
2023-04-14T11:18:46.242Z,36.97
2023-04-14T11:21:17.464Z,36.25
2023-04-14T11:23:45.639Z,36.52
2023-04-14T11:26:14.510Z,37.21
2023-04-14T11:28:45.145Z,36.56
2023-04-14T11:31:15.741Z,35.72
2023-04-14T11:33:44.760Z,36.86
2023-04-14T11:36:13.562Z,40.35
2023-04-14T11:38:46.441Z,35.95
2023-04-14T11:41:16.679Z,38.08
2023-04-14T11:43:47.198Z,36.05
2023-04-14T11:46:18.375Z,37.84
2023-04-14T11:48:46.264Z,38.18
2023-04-14T11:51:14.644Z,37.32
2023-04-14T11:53:43.475Z,38.25
2023-04-14T11:56:12.991Z,40.65
2023-04-14T11:58:42.405Z,37.27
2023-04-14T12:01:14.471Z,36.04
2023-04-14T12:03:42.627Z,36.74
2023-04-14T12:06:10.625Z,37.99
2023-04-14T12:08:38.445Z,38.59
2023-04-14T12:11:16.084Z,41.07
2023-04-14T12:13:46.477Z,41.99
2023-04-14T12:16:16.108Z,38.42
2023-04-14T12:18:45.005Z,38.89
2023-04-14T12:21:19.361Z,40.73
2023-04-14T12:23:48.974Z,36.09
2023-04-14T12:26:17.253Z,37.78
2023-04-14T12:28:45.292Z,38.80
2023-04-14T12:31:13.226Z,35.47
2023-04-14T12:33:41.677Z,34.12
2023-04-14T12:36:13.267Z,36.29
2023-04-14T12:38:41.695Z,36.84
2023-04-14T12:41:10.838Z,37.38
2023-04-14T12:43:41.115Z,35.90
2023-04-14T12:46:09.238Z,38.11
2023-04-14T12:48:47.174Z,39.32
2023-04-14T12:51:17.092Z,36.37
2023-04-14T12:53:52.468Z,38.34
2023-04-14T12:56:24.516Z,40.28
2023-04-14T12:58:52.618Z,36.10
2023-04-14T13:01:22.736Z,37.78
2023-04-14T13:03:53.388Z,35.92
2023-04-14T13:06:25.008Z,39.20
2023-04-14T13:08:54.150Z,43.36
2023-04-14T13:11:26.146Z,38.53
2023-04-14T13:13:55.326Z,38.27
2023-04-14T13:16:26.390Z,36.92
2023-04-14T13:18:55.692Z,37.91
2023-04-14T13:21:23.656Z,38.92
2023-04-14T13:23:51.381Z,38.42
2023-04-14T13:26:19.180Z,38.44
2023-04-14T13:28:50.398Z,36.61
2023-04-14T13:31:18.926Z,37.03
2023-04-14T13:33:46.829Z,38.57
2023-04-14T13:36:15.013Z,39.53
2023-04-14T13:38:43.006Z,39.92
2023-04-14T13:41:11.341Z,40.77
2023-04-14T13:43:39.083Z,39.82
2023-04-14T13:46:07.220Z,40.33
2023-04-14T13:48:35.534Z,41.59
2023-04-14T13:51:04.240Z,39.70
2023-04-14T13:53:32.473Z,39.44
2023-04-14T13:56:00.632Z,40.22
2023-04-14T13:58:28.676Z,39.25
2023-04-14T14:00:57.009Z,41.64
2023-04-14T14:03:25.399Z,40.67
2023-04-14T14:05:53.635Z,42.47
2023-04-14T14:08:22.506Z,40.65
2023-04-14T14:10:50.443Z,40.84
2023-04-14T14:13:20.590Z,40.93
2023-04-14T14:15:48.890Z,42.04
2023-04-14T14:18:17.757Z,41.65
2023-04-14T14:20:45.667Z,42.07
2023-04-14T14:23:13.442Z,43.87
2023-04-14T14:25:41.606Z,42.98
2023-04-14T14:28:09.686Z,44.34
2023-04-14T14:30:37.774Z,43.08
2023-04-14T14:33:05.817Z,42.53
2023-04-14T14:35:33.468Z,46.08
2023-04-14T14:38:01.727Z,42.45
2023-04-14T14:40:30.724Z,43.39
2023-04-14T14:42:58.481Z,42.95
2023-04-14T14:45:30.936Z,41.80
2023-04-14T14:47:59.472Z,40.46
2023-04-14T14:50:27.318Z,42.12
2023-04-14T14:52:56.930Z,42.16
2023-04-14T14:55:24.849Z,41.72
2023-04-14T14:57:52.620Z,44.61
2023-04-14T15:00:20.590Z,41.01
2023-04-14T15:02:48.539Z,41.72
2023-04-14T15:05:16.643Z,39.38
2023-04-14T15:07:44.949Z,40.67
2023-04-14T15:10:12.971Z,39.55
2023-04-14T15:12:41.024Z,40.77
2023-04-14T15:15:09.165Z,37.92
2023-04-14T15:17:37.983Z,39.59
2023-04-14T15:20:06.444Z,38.00
2023-04-14T15:22:35.949Z,39.12
2023-04-14T15:25:04.015Z,39.25
2023-04-14T15:27:33.199Z,39.86
2023-04-14T15:30:01.633Z,41.38
2023-04-14T15:32:29.865Z,42.63
2023-04-14T15:34:58.314Z,41.93
2023-04-14T15:37:27.238Z,43.49
2023-04-14T15:39:55.465Z,42.17
2023-04-14T15:42:23.161Z,41.04
2023-04-14T15:44:51.435Z,41.44
2023-04-14T15:47:19.522Z,38.70
2023-04-14T15:49:50.009Z,39.49
2023-04-14T15:52:35.107Z,39.60
2023-04-14T15:55:02.978Z,39.57
2023-04-14T15:57:31.010Z,40.68
2023-04-14T15:59:59.851Z,43.53
2023-04-14T16:02:30.997Z,43.04
2023-04-14T16:04:59.860Z,45.38
2023-04-14T16:07:31.037Z,46.96
2023-04-14T16:09:59.643Z,48.90
2023-04-14T16:12:27.907Z,48.64
2023-04-14T16:14:55.654Z,53.43
2023-04-14T16:17:26.281Z,51.98
2023-04-14T16:19:54.823Z,50.88
2023-04-14T16:22:22.558Z,51.88
2023-04-14T16:24:51.105Z,48.94
2023-04-14T16:27:19.400Z,49.71
2023-04-14T16:29:47.214Z,46.01
2023-04-14T16:32:15.224Z,45.53
2023-04-14T16:34:43.563Z,46.25
2023-04-14T16:37:11.532Z,48.73
2023-04-14T16:39:40.568Z,48.98
2023-04-14T16:42:09.988Z,47.00
2023-04-14T16:44:38.041Z,47.45
2023-04-14T16:47:05.705Z,43.97
2023-04-14T16:49:33.584Z,46.35
2023-04-14T16:52:01.641Z,46.39
2023-04-14T16:54:29.379Z,44.59
2023-04-14T16:56:59.354Z,45.44
2023-04-14T16:59:27.330Z,45.12
2023-04-14T17:01:55.471Z,46.23
2023-04-14T17:04:23.799Z,46.14
2023-04-14T17:06:52.562Z,44.72
2023-04-14T17:09:20.358Z,46.88
2023-04-14T17:11:48.856Z,47.54
2023-04-14T17:14:16.804Z,47.31
2023-04-14T17:16:44.612Z,46.90
2023-04-14T17:19:12.401Z,46.67
2023-04-14T17:21:40.131Z,45.74
2023-04-14T17:24:08.670Z,46.39
2023-04-14T17:26:36.703Z,45.86
2023-04-14T17:29:04.501Z,47.33
2023-04-14T17:31:32.605Z,47.29
2023-04-14T17:34:02.301Z,47.82
2023-04-14T17:36:30.775Z,46.40
2023-04-14T17:38:58.588Z,46.74
2023-04-14T17:41:27.140Z,47.47
2023-04-14T17:43:55.121Z,47.27
2023-04-14T17:46:29.387Z,47.84
2023-04-14T17:48:57.388Z,47.14
2023-04-14T17:51:25.275Z,47.35
2023-04-14T17:53:53.623Z,47.90
2023-04-14T17:56:22.617Z,47.60
2023-04-14T17:58:52.220Z,51.11
2023-04-14T18:01:20.325Z,50.50
2023-04-14T18:03:48.181Z,49.64
2023-04-14T18:06:16.821Z,49.70
2023-04-14T18:08:45.778Z,51.27
2023-04-14T18:11:13.735Z,50.71
2023-04-14T18:13:41.756Z,50.02
2023-04-14T18:16:10.652Z,50.30
2023-04-14T18:18:39.255Z,52.36
2023-04-14T18:21:08.324Z,50.45
2023-04-14T18:23:36.691Z,50.80
2023-04-14T18:28:37.314Z,52.20
2023-04-14T18:31:05.290Z,52.11
2023-04-14T18:33:33.305Z,51.98
2023-04-14T18:36:01.474Z,53.24
2023-04-14T18:38:29.577Z,52.26
2023-04-14T18:41:07.348Z,52.87
2023-04-14T18:43:35.651Z,52.47
2023-04-14T18:46:03.903Z,53.77
2023-04-14T18:48:32.095Z,55.58
2023-04-14T18:51:04.452Z,54.87
2023-04-14T18:53:32.992Z,54.64
2023-04-14T18:56:01.896Z,54.02
2023-04-14T18:58:31.049Z,53.99
2023-04-14T19:00:59.197Z,54.37
2023-04-14T19:03:27.321Z,55.06
2023-04-14T19:05:55.829Z,55.23
2023-04-14T19:08:23.625Z,56.16
2023-04-14T19:10:52.045Z,57.13
2023-04-14T19:13:23.167Z,57.36
2023-04-14T19:15:51.305Z,58.23
2023-04-14T19:18:19.607Z,60.42
2023-04-14T19:20:49.126Z,60.65
2023-04-14T19:23:17.263Z,61.10
2023-04-14T19:25:45.741Z,60.51
2023-04-14T19:28:17.138Z,60.90
2023-04-14T19:30:46.149Z,60.96
2023-04-14T19:33:15.829Z,62.62
2023-04-14T19:35:48.937Z,63.56
2023-04-14T19:38:19.672Z,64.20
2023-04-14T19:40:48.856Z,64.28
2023-04-14T19:43:20.799Z,64.04
2023-04-14T19:45:53.209Z,63.35
2023-04-14T19:48:24.785Z,63.24
2023-04-14T19:50:54.794Z,64.16
2023-04-14T19:53:24.629Z,65.04
2023-04-14T19:55:55.997Z,65.55
2023-04-14T19:58:26.222Z,65.78
2023-04-14T20:00:58.999Z,66.00
2023-04-14T20:03:27.405Z,65.99
2023-04-14T20:05:57.193Z,65.68
2023-04-14T20:08:27.634Z,65.55
2023-04-14T20:10:55.593Z,65.97
2023-04-14T20:13:26.993Z,66.11
2023-04-14T20:15:55.170Z,65.90
2023-04-14T20:18:23.474Z,65.99
2023-04-14T20:20:51.735Z,66.20
2023-04-14T20:23:19.568Z,66.83
2023-04-14T20:25:48.830Z,67.30
2023-04-14T20:28:19.502Z,67.25
2023-04-14T20:30:49.575Z,67.02
2023-04-14T20:33:19.135Z,66.90
2023-04-14T20:35:48.269Z,67.35
2023-04-14T20:38:16.441Z,67.32
2023-04-14T20:40:45.432Z,66.80
2023-04-14T20:43:14.860Z,66.59
2023-04-14T20:45:42.946Z,66.67
2023-04-14T20:48:11.132Z,66.90
2023-04-14T20:50:38.891Z,67.23
2023-04-14T20:53:07.731Z,67.66
2023-04-14T20:55:42.100Z,66.96
2023-04-14T20:58:14.012Z,66.63
2023-04-14T21:00:42.368Z,67.21
2023-04-14T21:03:10.222Z,67.37
2023-04-14T21:05:38.272Z,67.21
2023-04-14T21:08:06.169Z,67.74
2023-04-14T21:10:35.134Z,67.53
2023-04-14T21:15:00.384Z,67.89
2023-04-14T21:15:57.133Z,68.26
2023-04-14T21:18:25.348Z,68.16
2023-04-14T21:20:53.171Z,67.20
2023-04-14T21:23:21.462Z,67.08
2023-04-14T21:25:49.456Z,66.53
2023-04-14T21:28:18.179Z,66.99
2023-04-14T21:30:46.264Z,67.34
2023-04-14T21:33:14.109Z,67.62
2023-04-14T21:35:42.795Z,67.87
2023-04-14T21:38:11.396Z,68.16
2023-04-14T21:40:39.934Z,68.42
2023-04-14T21:43:07.676Z,68.16
2023-04-14T21:45:36.275Z,67.82
2023-04-14T21:48:04.405Z,68.13
2023-04-14T21:50:33.282Z,68.15
2023-04-14T21:53:04.539Z,68.67
2023-04-14T21:55:32.851Z,68.30
2023-04-14T21:58:03.800Z,68.47
2023-04-14T22:00:32.572Z,68.76
2023-04-14T22:03:02.921Z,68.49
2023-04-14T22:05:30.934Z,68.57
2023-04-14T22:07:58.862Z,69.29
2023-04-14T22:10:32.372Z,69.66
2023-04-14T22:13:00.871Z,69.57
2023-04-14T22:15:29.607Z,69.27
2023-04-14T22:17:58.783Z,69.18
2023-04-14T22:20:26.785Z,69.44
2023-04-14T22:22:54.760Z,69.57
2023-04-14T22:25:22.573Z,69.45
2023-04-14T22:27:50.354Z,69.44
2023-04-14T22:30:18.282Z,69.39
2023-04-14T22:32:46.143Z,69.61
2023-04-14T22:35:14.112Z,69.67
2023-04-14T22:37:42.059Z,69.79
2023-04-14T22:40:10.116Z,69.69
2023-04-14T22:42:37.891Z,69.94
2023-04-14T22:45:07.640Z,70.11
2023-04-14T22:47:35.682Z,70.41
2023-04-14T22:50:03.504Z,70.92
2023-04-14T22:52:31.252Z,71.13
2023-04-14T22:54:59.146Z,71.00
2023-04-14T22:57:27.974Z,70.78
2023-04-14T22:59:56.099Z,70.77
2023-04-14T23:02:24.198Z,70.58
2023-04-14T23:04:52.326Z,70.43
2023-04-14T23:07:20.173Z,70.31
2023-04-14T23:09:48.271Z,70.24
2023-04-14T23:12:16.135Z,70.34
2023-04-14T23:14:44.187Z,70.73
2023-04-14T23:17:12.759Z,70.72
2023-04-14T23:19:40.563Z,70.91
2023-04-14T23:22:08.311Z,71.06
2023-04-14T23:24:36.646Z,71.22
2023-04-14T23:27:04.491Z,71.49
2023-04-14T23:29:32.365Z,70.81
2023-04-14T23:32:00.339Z,70.62
2023-04-14T23:34:28.757Z,70.37
2023-04-14T23:36:56.455Z,70.19
2023-04-14T23:39:24.279Z,70.10
2023-04-14T23:41:52.234Z,70.30
2023-04-14T23:44:20.159Z,70.13
2023-04-14T23:46:48.663Z,70.56
2023-04-14T23:49:24.606Z,70.40
2023-04-14T23:52:03.417Z,70.63
2023-04-14T23:54:32.109Z,70.85
2023-04-14T23:56:59.981Z,70.98
2023-04-14T23:59:31.594Z,70.94
